createdAt,value
2023-05-02T00:01:12.214Z,93197.56
2023-05-02T00:03:42.378Z,93200.25
2023-05-02T00:06:12.358Z,93201.00
2023-05-02T00:08:43.122Z,93201.09
2023-05-02T00:11:12.539Z,93200.25
2023-05-02T00:13:41.896Z,93198.50
2023-05-02T00:16:11.438Z,93193.31
2023-05-02T00:18:40.834Z,93196.91
2023-05-02T00:21:10.424Z,93198.00
2023-05-02T00:23:39.729Z,93203.19
2023-05-02T00:26:12.941Z,93203.38
2023-05-02T00:28:42.361Z,93198.25
2023-05-02T00:31:11.861Z,93199.28
2023-05-02T00:33:41.426Z,93197.66
2023-05-02T00:36:18.380Z,93207.31
2023-05-02T00:38:48.066Z,93199.69
2023-05-02T00:41:19.577Z,93204.28
2023-05-02T00:43:48.880Z,93206.97
2023-05-02T00:49:50.398Z,93210.44
2023-05-02T00:52:21.007Z,93208.25
2023-05-02T00:54:50.580Z,93204.16
2023-05-02T00:57:19.965Z,93199.88
2023-05-02T00:59:49.463Z,93207.91
2023-05-02T01:02:35.980Z,93202.53
2023-05-02T01:05:18.200Z,93210.28
2023-05-02T01:08:05.392Z,93216.31
2023-05-02T01:10:51.228Z,93213.97
2023-05-02T01:13:24.524Z,93208.28
2023-05-02T01:15:55.829Z,93205.75
2023-05-02T01:18:29.846Z,93212.69
2023-05-02T01:21:05.305Z,93212.31
2023-05-02T01:23:48.678Z,93216.13
2023-05-02T01:26:26.361Z,93205.91
2023-05-02T01:29:02.559Z,93208.50
2023-05-02T01:31:37.722Z,93201.38
2023-05-02T01:34:11.640Z,93215.53
2023-05-02T01:36:46.920Z,93213.69
2023-05-02T01:39:22.262Z,93212.94
2023-05-02T01:41:55.049Z,93225.28
2023-05-02T01:44:27.051Z,93226.41
2023-05-02T01:46:59.195Z,93222.09
2023-05-02T01:49:29.956Z,93225.56
2023-05-02T01:52:04.058Z,93220.69
2023-05-02T01:54:37.360Z,93214.09
2023-05-02T01:57:10.437Z,93218.44
2023-05-02T01:59:44.646Z,93215.38
2023-05-02T02:02:16.864Z,93216.25
2023-05-02T02:04:49.148Z,93219.16
2023-05-02T02:07:18.545Z,93220.13
2023-05-02T02:09:47.831Z,93209.22
2023-05-02T02:12:29.600Z,93215.59
2023-05-02T02:15:11.681Z,93208.78
2023-05-02T02:17:45.760Z,93214.91
2023-05-02T02:20:17.654Z,93220.63
2023-05-02T02:22:48.435Z,93219.94
2023-05-02T02:25:19.448Z,93222.25
2023-05-02T02:27:50.384Z,93220.94
2023-05-02T02:30:21.232Z,93218.41
2023-05-02T02:32:50.827Z,93219.22
2023-05-02T02:35:20.383Z,93218.84
2023-05-02T02:37:56.983Z,93221.22
2023-05-02T02:40:33.318Z,93225.38
2023-05-02T02:43:13.056Z,93216.78
2023-05-02T02:45:56.733Z,93216.09
2023-05-02T02:48:37.721Z,93220.44
2023-05-02T02:51:16.220Z,93218.97
2023-05-02T02:54:05.939Z,93219.22
2023-05-02T02:56:44.273Z,93216.03
2023-05-02T02:59:22.337Z,93216.22
2023-05-02T03:02:03.980Z,93224.19
2023-05-02T03:04:35.847Z,93219.94
2023-05-02T03:07:05.438Z,93231.19
2023-05-02T03:09:44.141Z,93227.00
2023-05-02T03:12:13.758Z,93227.78
2023-05-02T03:14:43.829Z,93231.31
2023-05-02T03:17:14.756Z,93239.16
2023-05-02T03:19:44.182Z,93239.19
2023-05-02T03:22:13.528Z,93234.75
2023-05-02T03:24:42.924Z,93232.94
2023-05-02T03:27:12.483Z,93239.00
2023-05-02T03:29:41.835Z,93236.63
2023-05-02T03:32:11.533Z,93238.38
2023-05-02T03:34:43.198Z,93241.72
2023-05-02T03:37:12.742Z,93248.44
2023-05-02T03:39:42.281Z,93252.00
2023-05-02T03:42:11.690Z,93245.19
2023-05-02T03:44:41.038Z,93250.56
2023-05-02T03:47:10.564Z,93256.56
2023-05-02T03:50:50.288Z,93260.97
2023-05-02T03:53:19.828Z,93259.44
2023-05-02T03:55:49.298Z,93265.38
2023-05-02T03:58:18.766Z,93271.31
2023-05-02T04:00:48.056Z,93270.47
2023-05-02T04:03:17.621Z,93267.94
2023-05-02T04:05:48.610Z,93271.31
2023-05-02T04:08:18.159Z,93272.75
2023-05-02T04:10:47.538Z,93272.34
2023-05-02T04:13:17.179Z,93271.91
2023-05-02T04:15:47.984Z,93272.22
2023-05-02T04:18:17.489Z,93273.22
2023-05-02T04:20:48.436Z,93273.94
2023-05-02T04:23:17.962Z,93272.53
2023-05-02T04:25:54.876Z,93265.03
2023-05-02T04:28:25.023Z,93261.59
2023-05-02T04:30:54.886Z,93261.78
2023-05-02T04:33:24.317Z,93271.50
2023-05-02T04:35:55.110Z,93268.19
2023-05-02T04:38:24.634Z,93267.09
2023-05-02T04:40:54.370Z,93266.41
2023-05-02T04:43:24.868Z,93268.97
2023-05-02T04:45:54.405Z,93264.66
2023-05-02T04:48:23.891Z,93266.28
2023-05-02T04:50:54.968Z,93262.25
2023-05-02T04:53:24.922Z,93268.28
2023-05-02T04:55:54.338Z,93262.63
2023-05-02T04:58:23.775Z,93271.19
2023-05-02T05:00:53.111Z,93271.38
2023-05-02T05:03:22.607Z,93269.66
2023-05-02T05:05:53.499Z,93280.69
2023-05-02T05:08:22.916Z,93276.19
2023-05-02T05:10:53.000Z,93281.34
2023-05-02T05:13:22.298Z,93276.94
2023-05-02T05:15:51.784Z,93271.59
2023-05-02T05:18:21.416Z,93279.75
2023-05-02T05:20:50.848Z,93268.84
2023-05-02T05:23:21.753Z,93268.63
2023-05-02T05:25:51.578Z,93273.50
2023-05-02T05:28:21.021Z,93282.06
2023-05-02T05:30:50.300Z,93282.50
2023-05-02T05:33:19.991Z,93278.69
2023-05-02T05:35:49.578Z,93280.28
2023-05-02T05:38:20.385Z,93286.41
2023-05-02T05:40:52.297Z,93284.66
2023-05-02T05:43:21.698Z,93291.00
2023-05-02T05:45:53.124Z,93294.84
2023-05-02T05:48:22.699Z,93296.66
2023-05-02T05:50:52.918Z,93296.78
2023-05-02T05:53:23.958Z,93288.56
2023-05-02T05:55:53.296Z,93293.97
2023-05-02T05:58:22.921Z,93293.63
2023-05-02T06:00:52.426Z,93305.44
2023-05-02T06:03:22.476Z,93305.72
2023-05-02T06:05:52.001Z,93308.47
2023-05-02T06:08:23.009Z,93303.56
2023-05-02T06:10:52.501Z,93298.56
2023-05-02T06:13:21.969Z,93301.31
2023-05-02T06:15:51.551Z,93305.69
2023-05-02T06:18:20.943Z,93303.78
2023-05-02T06:20:50.479Z,93302.47
2023-05-02T06:23:20.304Z,93304.25
2023-05-02T06:25:51.562Z,93297.53
2023-05-02T06:28:21.082Z,93306.47
2023-05-02T06:30:59.545Z,93306.06
2023-05-02T06:36:12.631Z,93298.94
2023-05-02T06:38:41.978Z,93300.25
2023-05-02T06:41:18.370Z,93296.97
2023-05-02T06:43:47.952Z,93293.88
2023-05-02T06:46:17.710Z,93292.91
2023-05-02T06:50:49.731Z,93296.06
2023-05-02T06:53:19.226Z,93295.56
2023-05-02T06:55:49.432Z,93296.63
2023-05-02T06:58:18.801Z,93293.09
2023-05-02T07:00:51.135Z,93296.03
2023-05-02T07:03:20.696Z,93295.06
2023-05-02T07:05:51.822Z,93292.75
2023-05-02T07:08:22.757Z,93290.81
2023-05-02T07:10:53.056Z,93296.66
2023-05-02T07:13:22.553Z,93293.44
2023-05-02T07:15:51.886Z,93305.94
2023-05-02T07:18:21.469Z,93300.44
2023-05-02T07:20:52.591Z,93299.78
2023-05-02T07:23:22.296Z,93301.72
2023-05-02T07:25:51.707Z,93298.97
2023-05-02T07:28:21.122Z,93300.66
2023-05-02T07:30:50.856Z,93308.31
2023-05-02T07:33:20.228Z,93305.06
2023-05-02T07:35:51.281Z,93307.47
2023-05-02T07:38:20.942Z,93310.41
2023-05-02T07:40:50.488Z,93314.28
2023-05-02T07:43:19.798Z,93308.75
2023-05-02T07:45:49.277Z,93312.47
2023-05-02T07:48:18.985Z,93314.69
2023-05-02T07:50:48.521Z,93315.25
2023-05-02T07:53:19.363Z,93316.25
2023-05-02T07:55:49.508Z,93318.31
2023-05-02T07:58:18.828Z,93319.00
2023-05-02T08:00:48.405Z,93321.94
2023-05-02T08:03:18.214Z,93318.34
2023-05-02T08:05:47.763Z,93318.16
2023-05-02T08:08:18.684Z,93316.41
2023-05-02T08:10:48.193Z,93313.91
2023-05-02T08:13:17.623Z,93306.72
2023-05-02T08:15:47.356Z,93308.66
2023-05-02T08:18:17.228Z,93317.13
2023-05-02T08:20:46.526Z,93323.06
2023-05-02T08:23:17.343Z,93321.97
2023-05-02T08:25:47.065Z,93310.59
2023-05-02T08:28:16.304Z,93307.66
2023-05-02T08:30:46.574Z,93310.72
2023-05-02T08:33:16.321Z,93316.69
2023-05-02T08:35:45.752Z,93306.28
2023-05-02T08:38:15.232Z,93301.41
2023-05-02T08:40:46.290Z,93302.66
2023-05-02T08:43:16.226Z,93307.00
2023-05-02T08:45:47.408Z,93307.50
2023-05-02T08:48:17.522Z,93307.47
2023-05-02T08:50:48.648Z,93313.59
2023-05-02T08:53:19.983Z,93308.94
2023-05-02T08:55:52.071Z,93302.34
2023-05-02T08:58:21.507Z,93300.59
2023-05-02T09:00:52.593Z,93294.31
2023-05-02T09:03:31.020Z,93301.31
2023-05-02T09:06:08.472Z,93293.06
2023-05-02T09:08:39.387Z,93293.69
2023-05-02T09:11:12.613Z,93292.84
2023-05-02T09:13:44.322Z,93299.06
2023-05-02T09:16:16.119Z,93299.44
2023-05-02T09:18:50.287Z,93293.88
2023-05-02T09:21:22.565Z,93294.81
2023-05-02T09:23:54.127Z,93289.88
2023-05-02T09:26:29.496Z,93283.63
2023-05-02T09:29:02.624Z,93281.44
2023-05-02T09:31:54.867Z,93288.16
2023-05-02T09:34:25.626Z,93286.69
2023-05-02T09:36:55.302Z,93283.38
2023-05-02T09:39:26.573Z,93281.59
2023-05-02T09:41:58.142Z,93279.19
2023-05-02T09:44:37.973Z,93284.53
2023-05-02T09:47:07.514Z,93283.09
2023-05-02T09:50:49.538Z,93278.72
2023-05-02T09:53:19.141Z,93278.66
2023-05-02T09:55:48.615Z,93274.34
2023-05-02T09:58:23.924Z,93268.56
2023-05-02T10:00:53.625Z,93272.03
2023-05-02T10:03:26.091Z,93258.28
2023-05-02T10:05:57.897Z,93257.00
2023-05-02T10:08:29.568Z,93249.81
2023-05-02T10:11:01.010Z,93252.69
2023-05-02T10:13:32.584Z,93251.84
2023-05-02T10:16:04.989Z,93243.63
2023-05-02T10:18:40.782Z,93250.69
2023-05-02T10:21:14.628Z,93247.38
2023-05-02T10:23:45.226Z,93242.63
2023-05-02T10:26:21.584Z,93259.34
2023-05-02T10:28:51.657Z,93251.09
2023-05-02T10:31:27.603Z,93254.03
2023-05-02T10:34:00.227Z,93248.75
2023-05-02T10:36:33.730Z,93254.59
2023-05-02T10:39:04.879Z,93247.78
2023-05-02T10:41:37.073Z,93252.91
2023-05-02T10:44:09.091Z,93251.72
2023-05-02T10:46:40.850Z,93252.00
2023-05-02T10:49:12.173Z,93243.13
2023-05-02T10:51:45.498Z,93243.78
2023-05-02T10:54:25.368Z,93240.53
2023-05-02T10:57:11.420Z,93248.84
2023-05-02T10:59:42.780Z,93256.69
2023-05-02T11:02:48.716Z,93248.47
2023-05-02T11:05:18.408Z,93244.75
2023-05-02T11:07:49.243Z,93237.00
2023-05-02T11:10:29.621Z,93247.03
2023-05-02T11:13:01.436Z,93241.81
2023-05-02T11:15:58.651Z,93243.25
2023-05-02T11:18:28.099Z,93241.28
2023-05-02T11:21:32.055Z,93238.25
2023-05-02T11:24:40.263Z,93244.09
2023-05-02T11:27:43.700Z,93238.09
2023-05-02T11:30:14.227Z,93248.69
2023-05-02T11:33:20.379Z,93238.50
2023-05-02T11:35:51.378Z,93233.66
2023-05-02T11:38:23.271Z,93236.44
2023-05-02T11:41:00.279Z,93225.81
2023-05-02T11:43:32.359Z,93222.28
2023-05-02T11:46:04.486Z,93222.13
2023-05-02T11:48:34.464Z,93232.88
2023-05-02T11:51:05.722Z,93224.50
2023-05-02T11:53:36.567Z,93221.56
2023-05-02T11:56:09.248Z,93227.19
2023-05-02T11:58:38.643Z,93220.59
2023-05-02T12:01:15.576Z,93214.13
2023-05-02T12:03:45.983Z,93202.22
2023-05-02T12:06:19.481Z,93203.59
2023-05-02T12:08:49.971Z,93203.34
2023-05-02T12:11:21.433Z,93193.75
2023-05-02T12:13:52.004Z,93201.38
2023-05-02T12:16:22.529Z,93197.03
2023-05-02T12:18:52.393Z,93191.03
2023-05-02T12:21:22.078Z,93195.25
2023-05-02T12:23:51.768Z,93188.16
2023-05-02T12:26:25.754Z,93191.75
2023-05-02T12:28:57.350Z,93185.03
2023-05-02T12:31:28.281Z,93177.72
2023-05-02T12:34:00.427Z,93173.63
2023-05-02T12:36:30.283Z,93170.31
2023-05-02T12:39:01.781Z,93173.81
2023-05-02T12:41:37.406Z,93160.59
2023-05-02T12:44:09.291Z,93161.59
2023-05-02T12:46:38.741Z,93153.72
2023-05-02T12:50:49.853Z,93151.88
2023-05-02T12:53:19.182Z,93136.19
2023-05-02T12:55:49.121Z,93148.97
2023-05-02T12:58:18.489Z,93144.28
2023-05-02T13:00:48.117Z,93142.78
2023-05-02T13:03:17.656Z,93133.41
2023-05-02T13:05:48.451Z,93136.81
2023-05-02T13:08:17.826Z,93136.84
2023-05-02T13:10:47.248Z,93125.72
2023-05-02T13:13:16.801Z,93127.91
2023-05-02T13:15:47.882Z,93122.25
2023-05-02T13:18:17.204Z,93114.69
2023-05-02T13:20:48.057Z,93115.22
2023-05-02T13:23:18.091Z,93120.50
2023-05-02T13:25:47.449Z,93126.66
2023-05-02T13:28:16.995Z,93118.38
2023-05-02T13:30:46.300Z,93124.41
2023-05-02T13:33:15.840Z,93112.31
2023-05-02T13:35:45.219Z,93112.06
2023-05-02T13:38:16.020Z,93116.38
2023-05-02T13:40:45.399Z,93106.16
2023-05-02T13:43:14.840Z,93103.34
2023-05-02T13:45:44.355Z,93105.03
2023-05-02T13:48:13.756Z,93114.09
2023-05-02T13:50:43.257Z,93119.84
2023-05-02T13:53:12.783Z,93108.09
2023-05-02T13:55:44.941Z,93106.53
2023-05-02T13:58:14.309Z,93108.81
2023-05-02T14:00:43.777Z,93111.44
2023-05-02T14:03:13.835Z,93107.88
2023-05-02T14:05:44.030Z,93122.66
2023-05-02T14:08:18.582Z,93123.41
2023-05-02T14:10:49.567Z,93124.53
2023-05-02T14:13:19.030Z,93118.19
2023-05-02T14:15:48.500Z,93130.41
2023-05-02T14:18:18.171Z,93127.88
2023-05-02T14:20:47.626Z,93130.09
2023-05-02T14:23:17.150Z,93136.47
2023-05-02T14:25:47.980Z,93138.88
2023-05-02T14:28:17.780Z,93135.75
2023-05-02T14:30:47.155Z,93128.63
2023-05-02T14:33:16.509Z,93121.47
2023-05-02T14:35:46.127Z,93122.50
2023-05-02T14:38:15.467Z,93124.53
2023-05-02T14:40:44.915Z,93118.56
2023-05-02T14:43:16.235Z,93119.47
2023-05-02T14:45:45.620Z,93117.72
2023-05-02T14:48:17.101Z,93110.41
2023-05-02T14:50:46.661Z,93111.97
2023-05-02T14:53:16.460Z,93108.19
2023-05-02T14:55:46.484Z,93110.97
2023-05-02T14:58:20.843Z,93111.88
2023-05-02T15:00:50.827Z,93115.50
2023-05-02T15:03:20.438Z,93110.34
2023-05-02T15:05:50.153Z,93110.41
2023-05-02T15:08:19.797Z,93115.44
2023-05-02T15:10:49.239Z,93113.47
2023-05-02T15:13:20.046Z,93116.56
2023-05-02T15:15:50.220Z,93106.47
2023-05-02T15:18:19.730Z,93115.63
2023-05-02T15:20:49.148Z,93111.72
2023-05-02T15:23:18.704Z,93109.28
2023-05-02T15:25:48.224Z,93110.91
2023-05-02T15:28:19.125Z,93115.25
2023-05-02T15:30:49.283Z,93117.19
2023-05-02T15:33:18.767Z,93106.53
2023-05-02T15:35:56.810Z,93114.03
2023-05-02T15:38:26.707Z,93109.34
2023-05-02T15:40:57.368Z,93108.78
2023-05-02T15:43:29.414Z,93110.72
2023-05-02T15:46:01.925Z,93111.03
2023-05-02T15:50:49.898Z,93105.34
2023-05-02T15:53:19.883Z,93095.78
2023-05-02T15:55:49.591Z,93108.56
2023-05-02T15:58:19.422Z,93107.88
2023-05-02T16:00:49.006Z,93110.91
2023-05-02T16:03:18.310Z,93109.41
2023-05-02T16:05:49.225Z,93107.75
2023-05-02T16:08:18.587Z,93103.84
2023-05-02T16:10:48.460Z,93096.38
2023-05-02T16:13:17.886Z,93105.69
2023-05-02T16:15:48.386Z,93094.88
2023-05-02T16:18:18.049Z,93093.38
2023-05-02T16:20:50.263Z,93092.81
2023-05-02T16:23:19.598Z,93088.94
2023-05-02T16:25:48.985Z,93084.78
2023-05-02T16:28:18.334Z,93083.13
2023-05-02T16:30:47.686Z,93091.53
2023-05-02T16:33:16.975Z,93094.56
2023-05-02T16:35:47.977Z,93093.19
2023-05-02T16:38:17.325Z,93097.91
2023-05-02T16:40:47.111Z,93099.16
2023-05-02T16:43:17.226Z,93099.69
2023-05-02T16:45:47.436Z,93097.91
2023-05-02T16:48:16.836Z,93095.41
2023-05-02T16:50:47.743Z,93097.63
2023-05-02T16:53:17.112Z,93098.03
2023-05-02T16:55:46.630Z,93090.00
2023-05-02T16:58:16.004Z,93094.94
2023-05-02T17:00:45.666Z,93088.72
2023-05-02T17:03:15.388Z,93103.50
2023-05-02T17:05:44.833Z,93101.41
2023-05-02T17:08:17.121Z,93106.25
2023-05-02T17:10:51.664Z,93107.72
2023-05-02T17:13:21.183Z,93117.09
2023-05-02T17:15:51.421Z,93114.03
2023-05-02T17:18:22.116Z,93119.13
2023-05-02T17:20:51.783Z,93122.16
2023-05-02T17:23:22.968Z,93119.31
2023-05-02T17:25:53.301Z,93131.19
2023-05-02T17:28:22.734Z,93139.00
2023-05-02T17:30:54.788Z,93145.88
2023-05-02T17:33:25.580Z,93157.00
2023-05-02T17:35:56.320Z,93164.94
2023-05-02T17:38:27.484Z,93168.91
2023-05-02T17:40:56.964Z,93174.66
2023-05-02T17:43:26.379Z,93176.94
2023-05-02T17:45:55.850Z,93173.28
2023-05-02T17:48:25.335Z,93180.56
2023-05-02T17:50:56.249Z,93182.06
2023-05-02T17:53:27.383Z,93180.88
2023-05-02T17:55:56.880Z,93188.97
2023-05-02T17:58:27.969Z,93184.69
2023-05-02T18:00:57.298Z,93183.28
2023-05-02T18:03:27.211Z,93187.59
2023-05-02T18:05:56.824Z,93195.72
2023-05-02T18:08:27.849Z,93190.59
2023-05-02T18:10:57.245Z,93189.53
2023-05-02T18:13:26.721Z,93194.28
2023-05-02T18:16:01.643Z,93201.59
2023-05-02T18:18:31.154Z,93189.91
2023-05-02T18:21:00.907Z,93193.69
2023-05-02T18:23:31.768Z,93199.91
2023-05-02T18:26:01.364Z,93202.88
2023-05-02T18:28:30.917Z,93198.56
2023-05-02T18:31:00.383Z,93190.25
2023-05-02T18:33:29.801Z,93192.16
2023-05-02T18:35:59.304Z,93193.34
2023-05-02T18:38:28.586Z,93200.47
2023-05-02T18:40:59.547Z,93202.19
2023-05-02T18:43:28.888Z,93200.00
2023-05-02T18:45:58.349Z,93203.00
2023-05-02T18:50:49.138Z,93207.28
2023-05-02T18:53:19.642Z,93203.56
2023-05-02T18:55:49.325Z,93196.69
2023-05-02T18:58:18.764Z,93193.47
2023-05-02T19:00:48.001Z,93190.84
2023-05-02T19:03:17.567Z,93192.16
2023-05-02T19:05:50.357Z,93192.28
2023-05-02T19:08:19.499Z,93184.28
2023-05-02T19:10:48.826Z,93187.75
2023-05-02T19:13:19.528Z,93188.72
2023-05-02T19:15:48.854Z,93196.56
2023-05-02T19:18:18.241Z,93190.84
2023-05-02T19:20:48.954Z,93198.94
2023-05-02T19:23:20.693Z,93201.16
2023-05-02T19:25:50.408Z,93202.97
2023-05-02T19:28:19.941Z,93207.38
2023-05-02T19:30:49.238Z,93215.69
2023-05-02T19:33:18.583Z,93213.53
2023-05-02T19:35:49.306Z,93211.88
2023-05-02T19:38:18.664Z,93211.03
2023-05-02T19:40:48.099Z,93212.22
2023-05-02T19:43:17.430Z,93220.19
2023-05-02T19:45:46.795Z,93217.31
2023-05-02T19:48:16.556Z,93213.25
2023-05-02T19:50:47.410Z,93219.44
2023-05-02T19:53:16.712Z,93214.56
2023-05-02T19:55:46.174Z,93214.88
2023-05-02T19:58:15.517Z,93213.31
2023-05-02T20:00:46.352Z,93219.84
2023-05-02T20:03:15.842Z,93213.19
2023-05-02T20:05:45.473Z,93216.97
2023-05-02T20:08:16.492Z,93203.50
2023-05-02T20:10:46.048Z,93212.28
2023-05-02T20:13:15.486Z,93211.47
2023-05-02T20:15:44.809Z,93227.38
2023-05-02T20:18:14.188Z,93219.03
2023-05-02T20:20:43.515Z,93226.03
2023-05-02T20:23:12.785Z,93226.59
2023-05-02T20:25:43.972Z,93224.31
2023-05-02T20:28:13.647Z,93221.22
2023-05-02T20:30:44.269Z,93216.28
2023-05-02T20:33:16.068Z,93209.34
2023-05-02T20:35:46.337Z,93212.22
2023-05-02T20:38:17.966Z,93203.53
2023-05-02T20:40:48.782Z,93200.94
2023-05-02T20:43:19.069Z,93189.13
2023-05-02T20:45:49.409Z,93190.28
2023-05-02T20:48:19.440Z,93191.22
2023-05-02T20:50:57.908Z,93188.63
2023-05-02T20:53:27.216Z,93188.28
2023-05-02T20:55:58.081Z,93182.09
2023-05-02T20:58:27.610Z,93185.66
2023-05-02T21:00:57.003Z,93176.16
2023-05-02T21:03:26.676Z,93188.00
2023-05-02T21:05:59.403Z,93187.28
2023-05-02T21:08:28.868Z,93191.78
2023-05-02T21:10:59.711Z,93192.72
2023-05-02T21:13:29.063Z,93195.34
2023-05-02T21:15:58.554Z,93193.69
2023-05-02T21:18:27.993Z,93199.13
2023-05-02T21:20:57.462Z,93202.28
2023-05-02T21:23:27.037Z,93204.00
2023-05-02T21:25:56.495Z,93215.63
2023-05-02T21:28:27.742Z,93210.31
2023-05-02T21:30:57.203Z,93221.56
2023-05-02T21:33:26.703Z,93226.28
2023-05-02T21:35:59.882Z,93225.75
2023-05-02T21:38:29.700Z,93226.91
2023-05-02T21:41:03.386Z,93223.06
2023-05-02T21:43:39.180Z,93222.91
2023-05-02T21:46:08.840Z,93225.63
2023-05-02T21:50:49.080Z,93230.81
2023-05-02T21:53:18.410Z,93224.81
2023-05-02T21:55:47.711Z,93230.19
2023-05-02T21:58:17.105Z,93229.63
2023-05-02T22:00:46.622Z,93224.88
2023-05-02T22:03:17.091Z,93235.66
2023-05-02T22:05:50.496Z,93231.81
2023-05-02T22:08:20.659Z,93235.19
2023-05-02T22:10:50.121Z,93232.03
2023-05-02T22:13:19.781Z,93224.50
2023-05-02T22:15:50.997Z,93227.75
2023-05-02T22:18:20.562Z,93217.72
2023-05-02T22:20:51.571Z,93215.75
2023-05-02T22:23:20.943Z,93212.91
2023-05-02T22:25:50.400Z,93211.03
2023-05-02T22:28:19.679Z,93204.13
2023-05-02T22:30:49.044Z,93204.88
2023-05-02T22:33:18.346Z,93191.81
2023-05-02T22:35:49.356Z,93203.22
2023-05-02T22:38:18.766Z,93197.88
2023-05-02T22:40:48.145Z,93197.75
2023-05-02T22:43:17.849Z,93195.88
2023-05-02T22:45:47.468Z,93198.28
2023-05-02T22:48:16.825Z,93199.75
2023-05-02T22:50:50.179Z,93194.28
2023-05-02T22:53:21.797Z,93202.63
2023-05-02T22:55:51.944Z,93200.00
2023-05-02T22:58:21.342Z,93200.13
2023-05-02T23:00:50.782Z,93199.31
2023-05-02T23:03:20.248Z,93197.00
2023-05-02T23:05:51.315Z,93191.66
2023-05-02T23:08:21.102Z,93184.91
2023-05-02T23:10:50.642Z,93187.72
2023-05-02T23:13:20.102Z,93178.94
2023-05-02T23:15:55.156Z,93180.72
2023-05-02T23:18:24.733Z,93177.47
2023-05-02T23:20:55.675Z,93174.78
2023-05-02T23:23:25.100Z,93174.53
2023-05-02T23:25:54.578Z,93173.72
2023-05-02T23:28:24.086Z,93169.44
2023-05-02T23:30:53.903Z,93162.44
2023-05-02T23:33:23.371Z,93158.03
2023-05-02T23:35:54.829Z,93178.94
2023-05-02T23:38:24.482Z,93173.09
2023-05-02T23:40:54.604Z,93173.09
2023-05-02T23:43:24.563Z,93182.94
2023-05-02T23:45:53.903Z,93183.03
2023-05-02T23:48:23.507Z,93182.31
2023-05-02T23:50:54.358Z,93197.25
2023-05-02T23:53:23.871Z,93182.72
2023-05-02T23:55:53.319Z,93192.53
2023-05-02T23:58:22.808Z,93198.63
